.
WxDataArchive / Data Records for 2010-12-14
2010-12-13 December 2010 2010-12-15

Data Records for Tuesday, 14 December 2010

Time	Temp	Chill	HIndex	Humid	Dewpt	 Wind 	HiWind	WindDir	Rain 	Barom 
-----	----	-----	------	-----	-----	------	------	-------	-----	----- 
00:00	11.9	11.9	11.9	65	2.4	1	3	338	0.00	30.138 
00:05	11.9	11.9	11.9	65	2.4	1	3	292	0.00	30.138 
00:10	11.7	11.7	11.7	65	2.2	1	3	270	0.00	30.138 
00:15	11.7	11.7	11.7	65	2.2	0	3	270	0.00	30.145 
00:20	11.6	11.6	11.6	65	2.1	0	2	338	0.00	30.145 
00:25	11.6	11.6	11.6	66	2.5	0	2	338	0.00	30.145 
00:30	11.6	11.6	11.6	66	2.5	0	2	338	0.00	30.146 
00:35	11.4	11.4	11.4	66	2.3	0	3	292	0.00	30.146 
00:40	11.4	11.4	11.4	66	2.3	0	3	292	0.00	30.146 
00:45	11.4	11.4	11.4	66	2.3	1	3	292	0.00	30.137 
00:50	11.4	11.4	11.4	66	2.3	1	3	292	0.00	30.137 
00:55	11.4	11.4	11.4	66	2.3	1	4	338	0.00	30.137 
01:00	11.4	11.4	11.4	66	2.3	1	2	270	0.00	30.136 
01:05	11.4	11.4	11.4	67	2.6	1	4	270	0.00	30.136 
01:10	11.6	11.6	11.6	67	2.8	1	4	270	0.00	30.136 
01:15	11.6	11.6	11.6	67	2.8	0	2	270	0.00	30.134 
01:20	11.6	11.6	11.6	67	2.8	1	3	270	0.00	30.134 
01:25	11.7	11.7	11.7	66	2.6	0	4	270	0.00	30.134 
01:30	11.7	11.7	11.7	66	2.6	0	3	270	0.00	30.135 
01:35	11.7	11.7	11.7	66	2.6	0	2	270	0.00	30.135 
01:40	11.9	11.9	11.9	67	3.1	0	3	270	0.00	30.135 
01:45	11.7	11.7	11.7	66	2.6	0	2	270	0.00	30.135 
01:50	11.9	11.9	11.9	67	3.1	0	2	270	0.00	30.135 
01:55	11.9	11.9	11.9	66	2.8	0	4	270	0.00	30.135 
02:00	11.9	11.9	11.9	66	2.8	0	2	270	0.00	30.137 
02:05	11.9	11.9	11.9	66	2.8	1	3	270	0.00	30.137 
02:10	12.1	12.1	12.1	66	3.0	0	2	270	0.00	30.137 
02:15	12.1	12.1	12.1	66	3.0	0	2	270	0.00	30.140 
02:20	11.9	11.9	11.9	66	2.8	0	3	270	0.00	30.140 
02:25	11.9	11.9	11.9	66	2.8	0	2	270	0.00	30.140 
02:30	12.1	12.1	12.1	66	3.0	0	2	270	0.00	30.138 
02:35	11.9	11.9	11.9	66	2.8	0	0	---	0.00	30.138 
02:40	11.7	11.7	11.7	66	2.6	0	1	270	0.00	30.138 
02:45	11.6	11.6	11.6	66	2.5	0	1	270	0.00	30.140 
02:50	11.7	11.7	11.7	66	2.6	0	4	270	0.00	30.140 
02:55	11.7	11.7	11.7	66	2.6	0	1	270	0.00	30.140 
03:00	11.7	11.7	11.7	66	2.6	0	2	270	0.00	30.136 
03:05	11.7	11.7	11.7	66	2.6	0	1	270	0.00	30.136 
03:10	11.9	11.9	11.9	66	2.8	0	2	270	0.00	30.136 
03:15	12.1	12.1	12.1	66	3.0	0	1	270	0.00	30.134 
03:20	12.3	12.3	12.3	66	3.1	0	2	270	0.00	30.134 
03:25	12.4	12.4	12.4	66	3.2	0	2	270	0.00	30.134 
03:30	12.4	12.4	12.4	65	2.9	0	2	270	0.00	30.142 
03:35	12.4	12.4	12.4	65	2.9	0	2	270	0.00	30.142 
03:40	12.4	12.4	12.4	65	2.9	0	1	270	0.00	30.142 
03:45	12.3	12.3	12.3	65	2.8	0	1	270	0.00	30.138 
03:50	12.1	12.1	12.1	66	3.0	0	2	270	0.00	30.138 
03:55	11.7	11.7	11.7	66	2.6	0	2	270	0.00	30.138 
04:00	11.6	11.6	11.6	66	2.5	0	2	270	0.00	30.133 
04:05	11.2	11.2	11.2	67	2.4	0	1	270	0.00	30.133 
04:10	10.7	10.7	10.7	67	1.9	0	1	270	0.00	30.133 
04:15	10.4	10.4	10.4	68	2.0	0	2	270	0.00	30.136 
04:20	10.2	10.2	10.2	69	2.1	1	2	270	0.00	30.136 
04:25	10.0	10.0	10.0	69	1.9	0	2	270	0.00	30.136 
04:30	9.7	9.7	9.7	69	1.6	0	1	270	0.00	30.138 
04:35	9.5	9.5	9.5	70	1.7	0	2	270	0.00	30.138 
04:40	9.5	9.5	9.5	71	2.0	0	1	270	0.00	30.138 
04:45	9.3	9.3	9.3	71	1.8	0	1	270	0.00	30.138 
04:50	9.2	9.2	9.2	72	2.0	0	2	270	0.00	30.138 
04:55	9.2	9.2	9.2	72	2.0	0	2	270	0.00	30.138 
05:00	9.2	9.2	9.2	72	2.0	0	2	270	0.00	30.137 
05:05	9.2	9.2	9.2	72	2.0	1	2	270	0.00	30.137 
05:10	9.2	9.2	9.2	73	2.3	0	1	270	0.00	30.137 
05:15	9.2	9.2	9.2	73	2.3	0	2	270	0.00	30.139 
05:20	9.5	9.5	9.5	73	2.6	0	2	270	0.00	30.139 
05:25	9.7	9.7	9.7	73	2.8	1	3	270	0.00	30.139 
05:30	9.9	9.9	9.9	73	3.0	1	2	270	0.00	30.140 
05:35	10.0	10.0	10.0	73	3.1	1	2	270	0.00	30.140 
05:40	10.2	10.2	10.2	73	3.3	1	3	270	0.00	30.140 
05:45	10.4	10.4	10.4	73	3.5	1	3	270	0.00	30.140 
05:50	10.4	10.4	10.4	73	3.5	1	3	270	0.00	30.140 
05:55	10.5	10.5	10.5	73	3.6	1	2	270	0.00	30.140 
06:00	10.9	10.9	10.9	73	4.0	1	3	225	0.00	30.138 
06:05	11.1	11.1	11.1	73	4.2	1	2	225	0.00	30.138 
06:10	11.2	11.2	11.2	73	4.3	1	3	225	0.00	30.138 
06:15	11.6	11.6	11.6	73	4.7	1	3	225	0.00	30.141 
06:20	11.9	11.9	11.9	73	4.9	1	2	225	0.00	30.141 
06:25	12.1	12.1	12.1	73	5.1	1	3	225	0.00	30.141 
06:30	12.4	12.4	12.4	73	5.4	1	3	225	0.00	30.142 
06:35	12.6	12.6	12.6	73	5.6	1	2	225	0.00	30.142 
06:40	12.8	12.8	12.8	74	6.1	1	3	225	0.00	30.142 
06:45	13.1	13.1	13.1	74	6.4	1	4	225	0.00	30.145 
06:50	13.3	13.3	13.3	74	6.6	1	3	225	0.00	30.145 
06:55	13.6	13.6	13.6	75	7.2	1	3	225	0.00	30.145 
07:00	13.8	13.8	13.8	75	7.4	1	3	225	0.00	30.143 
07:05	14.0	14.0	14.0	76	7.9	2	3	225	0.00	30.143 
07:10	14.1	14.1	14.1	77	8.2	2	4	225	0.00	30.143 
07:15	14.3	14.3	14.3	77	8.4	2	4	248	0.00	30.149 
07:20	14.4	14.4	14.4	77	8.5	2	4	248	0.00	30.149 
07:25	14.6	14.6	14.6	78	9.0	2	4	248	0.00	30.149 
07:30	14.8	14.8	14.8	78	9.2	2	3	248	0.00	30.147 
07:35	14.9	14.9	14.9	79	9.6	2	3	248	0.00	30.147 
07:40	15.1	15.1	15.1	79	9.8	2	4	248	0.00	30.147 
07:45	15.2	15.2	15.2	80	10.2	2	4	248	0.00	30.148 
07:50	15.4	15.4	15.4	80	10.4	2	5	248	0.00	30.148 
07:55	15.4	15.4	15.4	80	10.4	2	5	248	0.00	30.148 
08:00	15.6	15.6	15.6	81	10.8	1	3	248	0.00	30.152 
08:05	15.6	15.6	15.6	81	10.8	1	2	248	0.00	30.152 
08:10	15.7	15.7	15.7	81	10.9	1	2	248	0.00	30.152 
08:15	15.9	15.9	15.9	81	11.1	0	2	248	0.00	30.152 
08:20	16.1	16.1	16.1	82	11.6	1	4	248	0.00	30.152 
08:25	16.1	16.1	16.1	82	11.6	1	3	248	0.00	30.152 
08:30	16.2	16.2	16.2	82	11.7	1	2	248	0.00	30.153 
08:35	16.4	16.4	16.4	82	11.9	1	2	248	0.00	30.153 
08:40	16.5	16.5	16.5	82	12.0	1	3	248	0.00	30.153 
08:45	16.5	16.5	16.5	82	12.0	1	3	248	0.00	30.151 
08:50	16.7	16.7	16.7	83	12.5	1	3	248	0.00	30.151 
08:55	16.9	16.9	16.9	83	12.6	1	3	248	0.00	30.151 
09:00	17.0	17.0	17.0	83	12.7	1	3	225	0.00	30.152 
09:05	17.2	17.2	17.2	83	12.9	1	3	225	0.00	30.152 
09:10	17.2	17.2	17.2	83	12.9	1	2	225	0.00	30.152 
09:15	17.3	17.3	17.3	83	13.0	0	2	225	0.00	30.153 
09:20	17.5	17.5	17.5	83	13.2	0	2	225	0.00	30.153 
09:25	17.5	17.5	17.5	83	13.2	1	2	225	0.00	30.153 
09:30	17.7	17.7	17.7	83	13.4	1	3	225	0.00	30.154 
09:35	17.7	17.7	17.7	83	13.4	2	4	270	0.00	30.154 
09:40	17.7	17.7	17.7	83	13.4	2	4	270	0.00	30.154 
09:45	17.7	17.7	17.7	83	13.4	2	3	270	0.00	30.159 
09:50	17.8	17.8	17.8	83	13.5	1	3	270	0.00	30.159 
09:55	18.0	18.0	18.0	83	13.7	1	3	315	0.00	30.159 
10:00	18.1	18.1	18.1	83	13.8	1	3	292	0.00	30.163 
10:05	18.3	18.3	18.3	83	14.0	1	3	270	0.00	30.163 
10:10	18.3	18.3	18.3	83	14.0	1	3	270	0.00	30.163 
10:15	18.4	18.4	18.4	83	14.1	2	3	270	0.00	30.167 
10:20	18.4	18.4	18.4	83	14.1	1	3	270	0.00	30.167 
10:25	18.6	18.6	18.6	83	14.3	2	4	270	0.00	30.167 
10:30	18.6	18.6	18.6	83	14.3	1	2	270	0.00	30.168 
10:35	18.8	18.8	18.8	83	14.5	2	4	248	0.00	30.168 
10:40	18.9	18.9	18.9	83	14.6	1	2	248	0.00	30.168 
10:45	19.1	19.1	19.1	83	14.8	1	3	248	0.00	30.168 
10:50	19.2	19.2	19.2	83	14.9	1	3	248	0.00	30.168 
10:55	19.4	19.4	19.4	82	14.8	1	2	248	0.00	30.168 
11:00	19.4	19.4	19.4	82	14.8	1	3	248	0.00	30.165 
11:05	19.5	19.5	19.5	82	14.9	1	2	225	0.00	30.165 
11:10	19.9	19.9	19.9	82	15.3	1	4	248	0.00	30.165 
11:15	20.0	20.0	20.0	81	15.1	1	3	248	0.00	30.154 
11:20	20.2	20.2	20.2	81	15.3	1	3	248	0.00	30.154 
11:25	20.5	20.5	20.5	81	15.6	1	3	315	0.00	30.154 
11:30	20.6	20.6	20.6	81	15.7	1	3	315	0.00	30.149 
11:35	21.0	21.0	21.0	80	15.8	1	3	315	0.00	30.149 
11:40	21.1	21.1	21.1	80	15.9	1	4	270	0.00	30.149 
11:45	21.0	21.0	21.0	79	15.5	2	5	248	0.00	30.141 
11:50	20.8	20.8	20.8	80	15.6	1	3	248	0.00	30.141 
11:55	21.1	21.1	21.1	80	15.9	1	4	248	0.00	30.141 
12:00	21.1	21.1	21.1	80	15.9	1	3	248	0.00	30.142 
12:05	21.0	21.0	21.0	80	15.8	1	2	248	0.00	30.142 
12:10	21.0	21.0	21.0	80	15.8	1	2	248	0.00	30.142 
12:15	21.1	21.1	21.1	80	15.9	1	3	248	0.00	30.134 
12:20	21.1	21.1	21.1	79	15.6	1	3	248	0.00	30.134 
12:25	21.3	21.3	21.3	79	15.8	1	3	248	0.00	30.134 
12:30	21.6	21.6	21.6	78	15.8	0	2	315	0.00	30.131 
12:35	21.8	21.8	21.8	78	16.0	1	2	315	0.00	30.131 
12:40	21.8	21.8	21.8	77	15.7	1	3	315	0.00	30.131 
12:45	21.8	21.8	21.8	77	15.7	1	3	315	0.00	30.125 
12:50	21.6	21.6	21.6	76	15.2	1	4	248	0.00	30.125 
12:55	21.4	21.4	21.4	74	14.4	1	2	338	0.00	30.125 
13:00	21.6	21.6	21.6	73	14.3	1	4	292	0.00	30.123 
13:05	21.8	21.8	21.8	73	14.5	1	3	315	0.00	30.123 
13:10	22.1	22.1	22.1	72	14.5	2	4	225	0.00	30.123 
13:15	22.2	22.2	22.2	72	14.6	1	3	225	0.00	30.119 
13:20	22.2	22.2	22.2	73	14.9	1	3	225	0.00	30.119 
13:25	22.2	22.2	22.2	73	14.9	2	4	225	0.00	30.119 
13:30	22.2	22.2	22.2	74	15.2	1	3	225	0.00	30.116 
13:35	22.2	22.2	22.2	74	15.2	1	3	225	0.00	30.116 
13:40	22.2	22.2	22.2	73	14.9	2	7	248	0.00	30.116 
13:45	22.5	22.5	22.5	73	15.2	1	4	248	0.00	30.115 
13:50	22.7	22.7	22.7	71	14.7	1	3	225	0.00	30.115 
13:55	23.2	23.2	23.2	72	15.5	2	4	248	0.00	30.115 
14:00	23.5	23.5	23.5	71	15.5	2	4	248	0.00	30.114 
14:05	23.2	23.2	23.2	70	14.9	2	4	248	0.00	30.114 
14:10	23.3	23.3	23.3	70	15.0	2	4	270	0.00	30.114 
14:15	23.3	23.3	23.3	70	15.0	2	4	248	0.00	30.113 
14:20	23.0	23.0	23.0	70	14.7	2	4	292	0.00	30.113 
14:25	23.0	23.0	23.0	71	15.0	2	4	292	0.00	30.113 
14:30	23.5	23.5	23.5	72	15.8	2	5	248	0.00	30.113 
14:35	23.6	23.6	23.6	70	15.3	3	5	248	0.00	30.113 
14:40	23.2	23.2	23.2	70	14.9	2	5	248	0.00	30.113 
14:45	22.9	22.9	22.9	70	14.6	2	5	248	0.00	30.111 
14:50	22.5	22.5	22.5	70	14.2	2	5	248	0.00	30.111 
14:55	22.7	22.7	22.7	72	15.1	2	4	248	0.00	30.111 
15:00	22.9	22.9	22.9	71	14.9	1	4	248	0.00	30.111 
15:05	22.7	22.7	22.7	70	14.4	2	4	248	0.00	30.111 
15:10	22.4	22.4	22.4	70	14.1	2	4	248	0.00	30.111 
15:15	22.2	22.2	22.2	71	14.3	1	4	315	0.00	30.113 
15:20	22.2	22.2	22.2	73	14.9	2	5	248	0.00	30.113 
15:25	22.4	22.4	22.4	73	15.1	2	5	292	0.00	30.113 
15:30	22.2	22.2	22.2	74	15.2	1	4	292	0.00	30.112 
15:35	22.4	22.4	22.4	75	15.7	1	4	248	0.00	30.112 
15:40	22.4	22.4	22.4	74	15.4	2	4	248	0.00	30.112 
15:45	22.5	22.5	22.5	74	15.5	2	4	270	0.00	30.113 
15:50	22.7	22.7	22.7	74	15.7	2	5	248	0.00	30.113 
15:55	22.9	22.9	22.9	73	15.6	2	5	248	0.00	30.113 
16:00	22.9	22.9	22.9	72	15.2	2	3	248	0.00	30.112 
16:05	22.5	22.5	22.5	72	14.9	1	3	248	0.00	30.112 
16:10	22.4	22.4	22.4	72	14.8	2	4	248	0.00	30.112 
16:15	22.2	22.2	22.2	72	14.6	2	4	248	0.00	30.117 
16:20	22.1	22.1	22.1	72	14.5	2	5	270	0.00	30.117 
16:25	21.6	21.6	21.6	72	14.0	2	3	248	0.00	30.117 
16:30	21.4	21.4	21.4	72	13.8	2	4	248	0.00	30.114 
16:35	21.3	21.3	21.3	73	14.0	1	3	248	0.00	30.114 
16:40	21.1	21.1	21.1	73	13.8	1	4	248	0.00	30.114 
16:45	21.0	21.0	21.0	74	14.0	1	2	248	0.00	30.115 
16:50	20.6	20.6	20.6	75	14.0	1	3	248	0.00	30.115 
16:55	20.3	20.3	20.3	75	13.7	0	2	248	0.00	30.115 
17:00	20.0	20.0	20.0	76	13.7	0	1	248	0.00	30.116 
17:05	19.7	19.7	19.7	76	13.4	1	2	248	0.00	30.116 
17:10	19.4	19.4	19.4	77	13.4	0	1	248	0.00	30.116 
17:15	18.9	18.9	18.9	77	12.9	0	2	248	0.00	30.108 
17:20	18.8	18.8	18.8	78	13.1	1	3	248	0.00	30.108 
17:25	18.6	18.6	18.6	78	12.9	0	2	248	0.00	30.108 
17:30	18.4	18.4	18.4	79	13.0	1	3	248	0.00	30.111 
17:35	18.3	18.3	18.3	79	12.9	0	2	248	0.00	30.111 
17:40	18.1	18.1	18.1	80	13.0	1	4	248	0.00	30.111 
17:45	18.0	18.0	18.0	80	12.9	1	4	248	0.00	30.112 
17:50	18.0	18.0	18.0	80	12.9	0	1	248	0.00	30.112 
17:55	18.0	18.0	18.0	81	13.2	1	3	248	0.00	30.112 
18:00	18.0	18.0	18.0	81	13.2	1	3	248	0.00	30.109 
18:05	18.1	18.1	18.1	81	13.3	2	4	248	0.00	30.109 
18:10	18.0	18.0	18.0	81	13.2	1	4	248	0.00	30.109 
18:15	18.0	18.0	18.0	81	13.2	1	3	248	0.00	30.110 
18:20	17.8	17.8	17.8	81	13.0	1	4	225	0.00	30.110 
18:25	17.8	17.8	17.8	81	13.0	1	3	248	0.00	30.110 
18:30	18.0	18.0	18.0	82	13.5	1	5	248	0.00	30.115 
18:35	18.1	18.1	18.1	82	13.5	2	4	248	0.00	30.115 
18:40	18.4	18.4	18.4	82	13.8	1	3	270	0.00	30.115 
18:45	18.4	18.4	18.4	82	13.8	2	6	248	0.00	30.116 
18:50	18.6	18.6	18.6	81	13.8	1	5	225	0.00	30.116 
18:55	18.6	18.6	18.6	81	13.8	2	6	248	0.00	30.116 
19:00	18.6	18.6	18.6	81	13.8	2	6	248	0.00	30.127 
19:05	18.8	18.8	18.8	81	14.0	1	5	248	0.00	30.127 
19:10	18.9	18.9	18.9	81	14.1	3	6	248	0.00	30.127 
19:15	18.9	18.9	18.9	81	14.1	1	4	248	0.00	30.130 
19:20	19.1	19.1	19.1	80	14.0	1	4	248	0.00	30.130 
19:25	19.1	19.1	19.1	80	14.0	2	5	248	0.00	30.130 
19:30	19.1	19.1	19.1	79	13.7	2	4	248	0.00	30.125 
19:35	18.9	18.9	18.9	79	13.5	3	9	248	0.00	30.125 
19:40	18.9	18.9	18.9	79	13.5	2	5	225	0.00	30.125 
19:45	18.8	18.8	18.8	79	13.4	1	4	248	0.00	30.128 
19:50	18.6	18.6	18.6	79	13.2	0	2	248	0.00	30.128 
19:55	18.6	18.6	18.6	79	13.2	1	5	248	0.00	30.128 
20:00	18.4	18.4	18.4	79	13.0	1	3	248	0.00	30.130 
20:05	18.6	18.6	18.6	79	13.2	1	3	248	0.00	30.130 
20:10	18.6	18.6	18.6	80	13.5	1	3	248	0.00	30.130 
20:15	18.8	18.8	18.8	80	13.7	1	3	248	0.00	30.128 
20:20	18.6	18.6	18.6	80	13.5	0	2	248	0.00	30.128 
20:25	18.6	18.6	18.6	80	13.5	1	2	248	0.00	30.128 
20:30	18.6	18.6	18.6	79	13.2	1	3	248	0.00	30.129 
20:35	18.4	18.4	18.4	80	13.3	2	4	248	0.00	30.129 
20:40	18.4	18.4	18.4	80	13.3	2	4	270	0.00	30.129 
20:45	18.3	18.3	18.3	79	12.9	1	3	270	0.00	30.130 
20:50	18.1	18.1	18.1	79	12.7	2	4	248	0.00	30.130 
20:55	18.0	18.0	18.0	79	12.6	1	3	248	0.00	30.130 
21:00	17.8	17.8	17.8	79	12.4	2	3	248	0.00	30.129 
21:05	17.7	17.7	17.7	79	12.3	1	4	248	0.00	30.129 
21:10	17.3	17.3	17.3	79	11.9	1	3	248	0.00	30.129 
21:15	17.2	17.2	17.2	79	11.8	1	3	248	0.00	30.128 
21:20	17.0	17.0	17.0	79	11.6	1	3	248	0.00	30.128 
21:25	16.9	16.9	16.9	79	11.5	1	3	248	0.00	30.128 
21:30	16.7	16.7	16.7	79	11.3	1	3	248	0.00	30.127 
21:35	16.5	16.5	16.5	79	11.1	1	2	292	0.00	30.127 
21:40	16.5	16.5	16.5	79	11.1	1	4	270	0.00	30.127 
21:45	16.2	16.2	16.2	79	10.9	1	3	270	0.00	30.124 
21:50	16.1	16.1	16.1	79	10.8	1	3	270	0.00	30.124 
21:55	15.9	15.9	15.9	79	10.6	1	3	292	0.00	30.124 
22:00	15.9	15.9	15.9	79	10.6	1	4	248	0.00	30.128 
22:05	15.6	15.6	15.6	79	10.3	0	2	270	0.00	30.128 
22:10	15.4	15.4	15.4	79	10.1	0	2	270	0.00	30.128 
22:15	15.2	15.2	15.2	79	9.9	0	1	270	0.00	30.130 
22:20	15.2	15.2	15.2	79	9.9	0	2	270	0.00	30.130 
22:25	15.2	15.2	15.2	80	10.2	0	2	270	0.00	30.130 
22:30	15.1	15.1	15.1	79	9.8	0	1	270	0.00	30.131 
22:35	14.8	14.8	14.8	79	9.5	0	1	270	0.00	30.131 
22:40	14.6	14.6	14.6	79	9.3	0	2	270	0.00	30.131 
22:45	14.4	14.4	14.4	79	9.1	0	2	270	0.00	30.134 
22:50	14.1	14.1	14.1	79	8.8	0	1	270	0.00	30.134 
22:55	14.0	14.0	14.0	80	9.0	0	1	270	0.00	30.134 
23:00	13.6	13.6	13.6	80	8.6	0	0	---	0.00	30.141 
23:05	13.5	13.5	13.5	80	8.5	0	1	270	0.00	30.141 
23:10	13.3	13.3	13.3	80	8.3	0	1	270	0.00	30.141 
23:15	12.9	12.9	12.9	80	7.9	0	1	270	0.00	30.147 
23:20	12.9	12.9	12.9	80	7.9	0	2	270	0.00	30.147 
23:25	12.8	12.8	12.8	80	7.8	0	1	270	0.00	30.147 
23:30	12.6	12.6	12.6	80	7.6	0	1	270	0.00	30.147 
23:35	12.4	12.4	12.4	80	7.4	0	1	270	0.00	30.147 
23:40	12.3	12.3	12.3	80	7.3	0	0	---	0.00	30.147 
23:45	12.1	12.1	12.1	80	7.1	0	0	---	0.00	30.150 
23:50	12.1	12.1	12.1	80	7.1	0	1	270	0.00	30.150 
23:55	11.9	11.9	11.9	80	6.9	0	0	---	0.00	30.150 

CoCoRaHS
IN-AL-39
A2 Web Hosting
Creative Commons License
GoDaddy
search engine by freefind advanced

loaded 2018-11-15 18:54:46 • last modified 2010-11-18 10:43:29
Privacy PolicyDisclaimer
• wx.awcolley.com is powered by PmWiki v.2002016 •
• all content (unless otherwise noted) © 2018 A W Colley